Time;durP1;ratioP1;P1;durP2;ratioP2;P2;SDS_P1;SDS_P2;PMS_P1;PMS_P2;Temp;Humidity;BMP_temperature;BMP_pressure;BME280_temperature;BME280_humidity;BME280_pressure;Samples;Min_cycle;Max_cycle;Signal;HPM_P1;HPM_P2
2023/08/07 00:02:12;;;;;;;2.30;0.80;;;;;;;26.92;45.80;100414.44;5067080;28;20476;-56
2023/08/07 00:04:40;;;;;;;2.00;0.82;;;;;;;26.92;45.78;100422.59;5067970;28;20055;-56
2023/08/07 00:07:07;;;;;;;2.50;0.73;;;;;;;26.92;46.01;100426.16;5066583;28;20043;-56
2023/08/07 00:09:34;;;;;;;1.55;0.70;;;;;;;26.92;46.12;100438.91;5065393;28;20057;-56
2023/08/07 00:12:03;;;;;;;2.17;0.60;;;;;;;26.92;46.16;100434.31;5066740;28;20049;-55
2023/08/07 00:14:30;;;;;;;2.65;1.10;;;;;;;26.92;46.11;100447.03;5067793;28;20048;-56
2023/08/07 00:16:58;;;;;;;2.05;0.70;;;;;;;26.91;45.84;100440.78;5066638;28;20040;-58
2023/08/07 00:19:25;;;;;;;1.60;0.82;;;;;;;26.91;46.03;100435.34;5065396;28;20052;-58
2023/08/07 00:21:52;;;;;;;1.40;0.52;;;;;;;26.92;46.18;100438.91;5066680;28;20408;-58
2023/08/07 00:24:20;;;;;;;1.88;0.70;;;;;;;26.91;46.29;100435.34;5071225;28;20044;-58
2023/08/07 00:26:47;;;;;;;3.25;0.75;;;;;;;26.91;46.17;100434.50;5066410;28;20377;-58
2023/08/07 00:29:15;;;;;;;1.73;0.77;;;;;;;26.91;46.18;100438.06;5064921;28;20048;-56
2023/08/07 00:31:42;;;;;;;1.98;0.70;;;;;;;26.92;46.28;100441.63;5066456;28;20053;-56
2023/08/07 00:34:10;;;;;;;2.15;0.80;;;;;;;26.91;46.06;100443.50;5066644;28;20518;-56
2023/08/07 00:36:37;;;;;;;1.10;0.55;;;;;;;26.90;46.13;100447.25;5066218;28;20048;-56
2023/08/07 00:39:05;;;;;;;2.05;0.80;;;;;;;26.92;46.18;100452.47;5063199;28;20127;-58
2023/08/07 00:41:32;;;;;;;2.00;0.68;;;;;;;26.92;46.21;100449.75;5067104;28;20051;-58
2023/08/07 00:44:00;;;;;;;2.58;0.77;;;;;;;26.92;46.16;100452.47;5067630;28;20055;-58
2023/08/07 00:46:29;;;;;;;2.17;0.70;;;;;;;26.92;46.28;100457.91;5066793;28;20044;-58
2023/08/07 00:48:56;;;;;;;2.45;0.90;;;;;;;26.92;46.18;100452.47;5065088;28;20053;-58
2023/08/07 00:51:24;;;;;;;1.98;0.80;;;;;;;26.91;46.32;100450.81;5065627;28;20056;-59
2023/08/07 00:53:51;;;;;;;1.55;0.65;;;;;;;26.91;46.51;100459.78;5067654;28;20396;-58
2023/08/07 00:56:19;;;;;;;2.53;0.93;;;;;;;26.90;46.22;100451.81;5065950;28;20049;-59
2023/08/07 00:58:46;;;;;;;1.10;0.63;;;;;;;26.91;46.28;100456.25;5064617;28;20052;-58
2023/08/07 01:01:14;;;;;;;1.23;0.40;;;;;;;26.91;46.49;100453.53;5066602;28;20052;-59
2023/08/07 01:03:42;;;;;;;1.63;0.70;;;;;;;26.91;46.30;100456.25;5067336;28;20063;-58
2023/08/07 01:06:09;;;;;;;1.85;0.70;;;;;;;26.91;46.60;100457.06;5064501;28;20053;-59
2023/08/07 01:08:37;;;;;;;1.85;0.60;;;;;;;26.90;46.42;100458.13;5064776;28;20048;-58
2023/08/07 01:11:08;;;;;;;1.83;0.70;;;;;;;26.91;46.31;100461.66;5065418;28;20049;-58
2023/08/07 01:13:44;;;;;;;1.90;0.80;;;;;;;26.91;46.33;100459.78;5066241;28;20060;-59
2023/08/07 01:16:26;;;;;;;1.92;0.80;;;;;;;26.91;46.30;100459.78;5068950;28;20044;-59
2023/08/07 01:18:54;;;;;;;1.70;0.70;;;;;;;26.91;46.43;100467.09;5070184;28;20045;-58
2023/08/07 01:21:21;;;;;;;2.15;0.90;;;;;;;26.89;46.63;100464.56;5070097;28;20047;-58
2023/08/07 01:23:49;;;;;;;1.83;0.85;;;;;;;26.91;46.67;100465.22;5070384;28;20044;-59
2023/08/07 01:26:19;;;;;;;2.17;0.82;;;;;;;26.91;46.51;100461.66;5068487;28;20032;-58
2023/08/07 01:28:55;;;;;;;1.23;0.63;;;;;;;26.91;46.57;100453.53;5069232;28;20118;-56
2023/08/07 01:31:25;;;;;;;2.03;0.73;;;;;;;26.90;46.48;100465.41;5071196;28;20044;-56
2023/08/07 01:34:01;;;;;;;2.17;0.63;;;;;;;26.90;46.50;100463.56;5069405;28;20049;-56
2023/08/07 01:36:30;;;;;;;2.03;0.82;;;;;;;26.90;46.39;100477.13;5069076;28;20048;-56
2023/08/07 01:38:58;;;;;;;1.38;0.50;;;;;;;26.89;46.57;100486.28;5073819;28;20044;-58
2023/08/07 01:41:27;;;;;;;2.40;0.90;;;;;;;26.90;46.77;100496.16;5069672;28;20051;-58
2023/08/07 01:43:54;;;;;;;1.45;0.68;;;;;;;26.90;46.87;100498.00;5068725;28;20052;-58
2023/08/07 01:46:22;;;;;;;1.75;0.68;;;;;;;26.90;46.92;100503.41;5069224;28;20048;-58
2023/08/07 01:48:49;;;;;;;1.73;0.63;;;;;;;26.89;46.61;100499.88;5070684;28;20067;-58
2023/08/07 01:51:17;;;;;;;2.67;1.00;;;;;;;26.88;46.62;100493.59;5068093;28;20053;-58
2023/08/07 01:53:45;;;;;;;1.92;0.93;;;;;;;26.88;46.56;100482.72;5068712;28;20048;-58
2023/08/07 01:56:12;;;;;;;1.95;0.70;;;;;;;26.91;46.69;100494.25;5067799;28;20060;-58
2023/08/07 01:58:39;;;;;;;2.08;0.70;;;;;;;26.88;46.79;100496.31;5069221;28;20056;-56
2023/08/07 02:01:07;;;;;;;2.53;0.88;;;;;;;26.88;46.81;100490.88;5068017;28;20056;-56
2023/08/07 02:03:34;;;;;;;1.65;0.65;;;;;;;26.90;46.88;100487.13;5067341;28;20052;-56
2023/08/07 02:06:02;;;;;;;2.17;0.85;;;;;;;26.90;46.63;100492.56;5068431;28;20049;-56
2023/08/07 02:08:29;;;;;;;1.85;0.52;;;;;;;26.90;46.70;100498.00;5069529;28;20053;-56
2023/08/07 02:10:57;;;;;;;1.98;0.77;;;;;;;26.88;46.74;100485.44;5068901;28;20051;-56
2023/08/07 02:13:24;;;;;;;1.98;0.77;;;;;;;26.88;46.67;100490.03;5067158;28;20040;-56
2023/08/07 02:15:52;;;;;;;2.25;0.90;;;;;;;26.88;46.75;100500.91;5067380;28;20063;-56
2023/08/07 02:18:19;;;;;;;1.75;0.70;;;;;;;26.87;47.02;100486.50;5069167;28;20060;-56
2023/08/07 02:20:46;;;;;;;2.00;0.90;;;;;;;26.89;46.71;100499.88;5068787;28;20051;-56
2023/08/07 02:23:14;;;;;;;1.92;0.63;;;;;;;26.89;46.90;100491.72;5070034;28;20048;-56
2023/08/07 02:25:41;;;;;;;1.85;0.70;;;;;;;26.88;46.89;100501.75;5063019;28;20063;-56
2023/08/07 02:28:08;;;;;;;2.88;0.80;;;;;;;26.90;46.83;100503.41;5068119;28;20051;-58
2023/08/07 02:30:36;;;;;;;3.75;1.00;;;;;;;26.88;46.71;100511.78;5068728;28;20048;-58
2023/08/07 02:33:03;;;;;;;1.55;0.80;;;;;;;26.88;46.99;100506.34;5068010;28;20048;-59
2023/08/07 02:35:31;;;;;;;2.70;0.75;;;;;;;26.88;47.05;100511.78;5067871;28;20512;-58
2023/08/07 02:37:58;;;;;;;2.35;0.70;;;;;;;26.88;46.83;100511.78;5070192;28;20396;-58
2023/08/07 02:40:25;;;;;;;2.50;0.93;;;;;;;26.87;47.05;100512.81;5066722;28;20389;-58
2023/08/07 02:42:53;;;;;;;1.30;0.50;;;;;;;26.87;46.72;100512.81;5067789;28;20048;-59
2023/08/07 02:45:20;;;;;;;1.85;0.82;;;;;;;26.88;46.85;100504.47;5067771;28;20041;-59
2023/08/07 02:47:48;;;;;;;1.75;0.70;;;;;;;26.87;47.08;100502.78;5069677;28;20130;-56
2023/08/07 02:50:15;;;;;;;1.63;0.60;;;;;;;26.88;46.84;100496.31;5066883;28;20052;-55
2023/08/07 02:52:42;;;;;;;3.05;0.80;;;;;;;26.87;47.03;100499.22;5062370;28;20412;-56
2023/08/07 02:55:12;;;;;;;1.40;0.50;;;;;;;26.88;46.83;100506.34;5070776;28;20052;-58
2023/08/07 02:57:39;;;;;;;1.95;0.60;;;;;;;26.87;47.05;100510.09;5067927;28;20053;-59
2023/08/07 03:00:07;;;;;;;2.30;0.68;;;;;;;26.87;46.96;100507.38;5068263;28;20516;-59
2023/08/07 03:02:35;;;;;;;1.90;0.60;;;;;;;26.87;47.03;100504.66;5067117;28;20396;-59
2023/08/07 03:05:03;;;;;;;2.15;0.73;;;;;;;26.87;46.98;100515.53;5067656;28;20060;-58
2023/08/07 03:07:30;;;;;;;1.70;0.68;;;;;;;26.87;46.85;100501.94;5063086;28;20049;-56
2023/08/07 03:09:57;;;;;;;2.20;0.70;;;;;;;26.87;46.79;100501.94;5067071;28;20052;-56
2023/08/07 03:12:25;;;;;;;2.45;0.60;;;;;;;26.87;46.88;100501.94;5065381;28;20053;-56
2023/08/07 03:14:52;;;;;;;1.60;0.57;;;;;;;26.86;47.07;100498.41;5067461;28;20056;-56
2023/08/07 03:17:20;;;;;;;1.90;0.60;;;;;;;26.86;47.06;100505.69;5069330;28;20044;-58
2023/08/07 03:19:49;;;;;;;1.92;0.68;;;;;;;26.86;46.99;100505.69;5066564;28;20057;-59
2023/08/07 03:22:16;;;;;;;2.38;0.77;;;;;;;26.85;47.07;100512.97;5065536;28;20059;-59
2023/08/07 03:24:52;;;;;;;2.00;0.70;;;;;;;26.85;47.04;100512.16;5067442;28;20417;-58
2023/08/07 03:27:20;;;;;;;1.88;0.70;;;;;;;26.85;47.12;100518.41;5069109;28;20052;-58
2023/08/07 03:29:48;;;;;;;2.33;0.70;;;;;;;26.86;46.92;100527.44;5070334;28;20501;-58
2023/08/07 03:32:15;;;;;;;1.98;0.90;;;;;;;26.86;47.31;100527.44;5064062;28;20060;-58
2023/08/07 03:34:43;;;;;;;1.90;0.80;;;;;;;26.86;47.00;100528.28;5068266;28;20056;-59
2023/08/07 03:37:11;;;;;;;1.27;0.50;;;;;;;26.86;47.19;100527.44;5067723;28;20053;-56
2023/08/07 03:39:38;;;;;;;4.88;0.60;;;;;;;26.86;47.10;100532.88;5069724;28;20493;-56
2023/08/07 03:42:06;;;;;;;2.42;0.82;;;;;;;26.85;47.04;100534.72;5065290;28;20056;-56
2023/08/07 03:44:34;;;;;;;2.30;0.85;;;;;;;26.85;47.03;100540.16;5068335;28;20049;-56
2023/08/07 03:47:02;;;;;;;2.15;0.80;;;;;;;26.85;46.98;100540.16;5068387;28;20052;-58
2023/08/07 03:49:29;;;;;;;2.40;1.00;;;;;;;26.84;47.00;100541.19;5065329;28;20060;-58
2023/08/07 03:51:58;;;;;;;1.70;0.80;;;;;;;26.85;47.12;100545.56;5064721;28;20051;-59
2023/08/07 03:54:26;;;;;;;2.35;0.80;;;;;;;26.85;46.89;100545.56;5064121;28;20052;-59
2023/08/07 03:56:54;;;;;;;2.03;0.70;;;;;;;26.85;47.27;100542.03;5067111;28;20049;-58
2023/08/07 03:59:21;;;;;;;1.00;0.47;;;;;;;26.84;47.10;100543.06;5065472;28;20060;-59
2023/08/07 04:01:49;;;;;;;1.15;0.60;;;;;;;26.84;47.11;100549.34;5058515;28;20063;-59
2023/08/07 04:04:16;;;;;;;4.65;1.10;;;;;;;26.85;47.19;100548.28;5058101;28;20053;-59
2023/08/07 04:06:45;;;;;;;2.67;0.85;;;;;;;26.84;47.08;100543.91;5065301;28;20044;-57
2023/08/07 04:09:13;;;;;;;2.45;0.75;;;;;;;26.83;46.92;100544.94;5059876;28;20056;-59
2023/08/07 04:11:41;;;;;;;3.13;1.00;;;;;;;26.83;47.07;100547.66;5064263;28;20060;-59
2023/08/07 04:14:08;;;;;;;1.75;0.85;;;;;;;26.84;47.16;100545.78;5067967;28;20040;-57
2023/08/07 04:16:37;;;;;;;1.77;0.80;;;;;;;26.83;46.99;100544.94;5066574;28;20052;-57
2023/08/07 04:19:06;;;;;;;2.30;0.82;;;;;;;26.83;47.02;100547.66;5066311;28;20045;-59
2023/08/07 04:21:33;;;;;;;1.30;0.40;;;;;;;26.82;47.21;100551.41;5064994;28;20065;-59
2023/08/07 04:24:07;;;;;;;1.75;0.60;;;;;;;26.82;47.02;100548.69;5066520;28;20052;-57
2023/08/07 04:26:35;;;;;;;1.23;0.60;;;;;;;26.83;47.08;100547.66;5065768;28;20483;-56
2023/08/07 04:29:02;;;;;;;1.55;0.52;;;;;;;26.83;47.01;100550.38;5066324;28;20045;-57
2023/08/07 04:31:33;;;;;;;1.48;0.70;;;;;;;26.83;46.92;100541.38;5064411;28;20519;-57
2023/08/07 04:34:00;;;;;;;2.60;0.90;;;;;;;26.83;47.27;100549.53;5066707;28;20059;-57
2023/08/07 04:36:27;;;;;;;2.75;0.82;;;;;;;26.83;46.93;100552.25;5066394;28;20059;-57
2023/08/07 04:38:55;;;;;;;1.25;0.55;;;;;;;26.83;47.12;100554.97;5065725;28;20059;-57
2023/08/07 04:41:24;;;;;;;1.55;0.60;;;;;;;26.82;47.02;100553.28;5065937;28;20072;-59
2023/08/07 04:43:51;;;;;;;2.15;0.60;;;;;;;26.81;47.28;100552.41;5067620;28;20511;-59
2023/08/07 04:46:19;;;;;;;2.33;0.60;;;;;;;26.81;46.86;100549.69;5066143;28;20048;-60
2023/08/07 04:48:47;;;;;;;1.77;0.60;;;;;;;26.82;47.01;100556.00;5065189;28;20045;-59
2023/08/07 04:51:15;;;;;;;1.83;0.65;;;;;;;26.82;46.82;100548.69;5065469;28;20417;-59
2023/08/07 04:53:42;;;;;;;2.47;0.90;;;;;;;26.81;47.12;100555.13;5068163;28;20048;-59
2023/08/07 04:56:10;;;;;;;2.22;0.80;;;;;;;26.82;47.09;100550.56;5066038;28;20041;-59
2023/08/07 04:58:37;;;;;;;2.10;0.70;;;;;;;26.81;46.87;100555.13;5065496;28;20047;-57
2023/08/07 05:01:04;;;;;;;1.98;0.93;;;;;;;26.80;46.92;100548.03;5065794;28;20045;-56
2023/08/07 05:03:32;;;;;;;2.03;0.65;;;;;;;26.81;47.05;100549.69;5067491;28;20052;-56
2023/08/07 05:06:01;;;;;;;2.13;0.73;;;;;;;26.82;47.01;100553.28;5065791;28;20045;-57
2023/08/07 05:08:29;;;;;;;2.38;0.88;;;;;;;26.81;46.98;100554.28;5065357;28;20380;-56
2023/08/07 05:10:56;;;;;;;2.05;0.77;;;;;;;26.80;46.76;100564.31;5066273;28;20055;-56
2023/08/07 05:13:24;;;;;;;2.38;1.00;;;;;;;26.81;46.81;100559.72;5067207;28;20051;-56
2023/08/07 05:15:51;;;;;;;1.42;0.68;;;;;;;26.81;46.93;100570.59;5065692;28;20048;-56
2023/08/07 05:18:19;;;;;;;1.60;0.70;;;;;;;26.80;46.97;100568.91;5064861;28;20047;-56
2023/08/07 05:20:46;;;;;;;2.10;0.70;;;;;;;26.80;47.03;100574.34;5065593;28;20512;-56
2023/08/07 05:23:14;;;;;;;1.60;0.70;;;;;;;26.81;46.83;100578.75;5063935;28;20049;-59
2023/08/07 05:25:41;;;;;;;1.30;0.60;;;;;;;26.79;46.75;100576.22;5065177;28;20075;-59
2023/08/07 05:28:08;;;;;;;1.35;0.60;;;;;;;26.80;46.68;100579.78;5064804;28;20048;-56
2023/08/07 05:30:36;;;;;;;1.60;0.70;;;;;;;26.80;46.77;100579.78;5065677;28;20100;-56
2023/08/07 05:33:03;;;;;;;1.35;0.60;;;;;;;26.79;46.76;100591.69;5067125;28;20510;-56
2023/08/07 05:35:31;;;;;;;1.83;0.90;;;;;;;26.79;46.78;100595.22;5065451;28;20056;-56
2023/08/07 05:37:58;;;;;;;2.08;0.80;;;;;;;26.79;46.65;100599.81;5064768;28;20055;-60
2023/08/07 05:40:25;;;;;;;2.15;0.82;;;;;;;26.79;46.74;100607.97;5065846;28;20045;-59
2023/08/07 05:42:53;;;;;;;2.35;0.60;;;;;;;26.79;46.71;100606.09;5067103;28;20045;-59
2023/08/07 05:45:20;;;;;;;2.22;0.60;;;;;;;26.79;46.78;100605.25;5065880;28;20388;-59
2023/08/07 05:47:47;;;;;;;1.83;0.75;;;;;;;26.79;46.74;100605.25;5064823;28;20049;-59
2023/08/07 05:50:15;;;;;;;0.88;0.40;;;;;;;26.79;46.87;100610.69;5065296;28;20041;-59
2023/08/07 05:52:42;;;;;;;1.98;0.88;;;;;;;26.78;46.43;100604.41;5066813;28;20048;-59
2023/08/07 05:55:09;;;;;;;1.83;0.65;;;;;;;26.78;46.62;100604.41;5065510;28;20045;-59
2023/08/07 05:57:37;;;;;;;1.38;0.57;;;;;;;26.79;46.64;100602.53;5064776;28;20107;-58
2023/08/07 06:00:05;;;;;;;1.52;0.77;;;;;;;26.77;46.59;100601.88;5065108;28;20488;-59
2023/08/07 06:02:38;;;;;;;1.42;0.50;;;;;;;26.78;46.48;100608.97;5077194;28;20055;-59
2023/08/07 06:05:07;;;;;;;1.63;0.57;;;;;;;26.77;46.60;100604.59;5068902;28;20052;-59
2023/08/07 06:07:34;;;;;;;1.70;0.75;;;;;;;26.77;46.40;100605.44;5066914;28;20060;-59
2023/08/07 06:10:01;;;;;;;1.73;0.65;;;;;;;26.76;46.40;100605.63;5073006;28;20485;-59
2023/08/07 06:12:29;;;;;;;1.08;0.47;;;;;;;26.75;46.53;100610.22;5070326;28;20041;-59
2023/08/07 06:14:56;;;;;;;1.35;0.65;;;;;;;26.78;46.25;100606.25;5068825;28;20055;-59
2023/08/07 06:17:24;;;;;;;1.45;0.52;;;;;;;26.77;46.71;100608.13;5067171;28;20052;-59
2023/08/07 06:19:52;;;;;;;1.10;0.63;;;;;;;26.77;46.62;100618.16;5069414;28;20045;-59
2023/08/07 06:22:19;;;;;;;0.88;0.30;;;;;;;26.76;46.41;100611.91;5070206;28;20044;-60
2023/08/07 06:24:46;;;;;;;0.98;0.40;;;;;;;26.76;46.41;100616.50;5068768;28;20040;-59
2023/08/07 06:27:14;;;;;;;1.70;0.88;;;;;;;26.77;46.57;100618.16;5066716;28;20045;-58
2023/08/07 06:29:42;;;;;;;1.85;0.55;;;;;;;26.76;46.43;100613.78;5069231;28;20048;-59
2023/08/07 06:32:10;;;;;;;1.45;0.47;;;;;;;26.75;46.45;100615.66;5069884;28;20048;-59
2023/08/07 06:34:38;;;;;;;2.20;0.80;;;;;;;26.76;46.45;100621.91;5068291;28;20061;-59
2023/08/07 06:37:05;;;;;;;1.23;0.50;;;;;;;26.76;46.45;100619.19;5066540;28;20056;-58
2023/08/07 06:39:32;;;;;;;0.98;0.35;;;;;;;26.75;46.38;100615.66;5066690;28;20425;-59
2023/08/07 06:42:00;;;;;;;1.20;0.60;;;;;;;26.75;46.29;100614.81;5069866;28;20044;-59
2023/08/07 06:44:33;;;;;;;1.52;0.70;;;;;;;26.76;46.26;100611.06;5067218;28;20048;-59
2023/08/07 06:47:01;;;;;;;0.90;0.50;;;;;;;26.75;46.27;100614.81;5066156;28;20049;-57
2023/08/07 06:49:28;;;;;;;1.50;0.60;;;;;;;26.75;46.29;100618.38;5064921;28;20489;-56
2023/08/07 06:51:56;;;;;;;1.80;0.60;;;;;;;26.74;46.22;100610.38;5069658;28;20381;-56
2023/08/07 06:54:24;;;;;;;1.38;0.52;;;;;;;26.75;46.34;100614.81;5068024;28;20048;-57
2023/08/07 06:56:51;;;;;;;2.63;0.65;;;;;;;26.75;46.26;100617.53;5065951;28;20049;-58
2023/08/07 06:59:19;;;;;;;1.65;0.60;;;;;;;26.75;46.31;100614.81;5064787;28;20041;-59
2023/08/07 07:01:46;;;;;;;1.35;0.50;;;;;;;26.74;46.37;100611.25;5069573;28;20049;-59
2023/08/07 07:04:14;;;;;;;1.40;0.65;;;;;;;26.75;46.43;100620.25;5067835;28;20045;-59
2023/08/07 07:06:42;;;;;;;1.58;0.60;;;;;;;26.75;46.15;100617.53;5065617;28;20049;-59
2023/08/07 07:09:10;;;;;;;1.20;0.50;;;;;;;26.75;45.96;100617.53;5061612;28;20408;-59
2023/08/07 07:11:37;;;;;;;1.70;0.47;;;;;;;26.75;46.01;100622.97;5069202;28;20052;-59
2023/08/07 07:14:05;;;;;;;1.67;0.77;;;;;;;26.75;46.13;100618.38;5066777;28;20048;-59
2023/08/07 07:16:32;;;;;;;2.25;0.80;;;;;;;26.75;46.13;100625.66;5065495;28;20041;-59
2023/08/07 07:19:00;;;;;;;2.05;0.60;;;;;;;26.74;45.89;100632.97;5069253;28;20041;-56
2023/08/07 07:21:27;;;;;;;1.20;0.50;;;;;;;26.75;45.53;100628.38;5069176;28;20040;-57
2023/08/07 07:23:55;;;;;;;1.25;0.55;;;;;;;26.75;45.48;100628.38;5066686;28;20059;-57
2023/08/07 07:26:22;;;;;;;2.40;0.77;;;;;;;26.75;45.08;100629.22;5061908;28;20055;-57
2023/08/07 07:28:51;;;;;;;3.03;0.90;;;;;;;26.76;45.12;100636.34;5063857;28;20060;-57
2023/08/07 07:31:18;;;;;;;1.02;0.30;;;;;;;26.75;44.95;100629.22;5068820;28;20512;-56
2023/08/07 07:33:46;;;;;;;1.50;0.68;;;;;;;26.74;44.76;100630.25;5067235;28;20064;-56
2023/08/07 07:36:18;;;;;;;1.50;0.70;;;;;;;26.74;44.51;100632.97;5065076;28;20053;-56
2023/08/07 07:38:47;;;;;;;1.25;0.52;;;;;;;26.75;44.66;100636.53;5068729;28;20041;-56
2023/08/07 07:41:15;;;;;;;0.82;0.35;;;;;;;26.75;44.31;100636.53;5067863;28;20045;-57
2023/08/07 07:43:42;;;;;;;1.30;0.55;;;;;;;26.75;44.31;100641.97;5066886;28;20412;-57
2023/08/07 07:46:10;;;;;;;1.35;0.60;;;;;;;26.74;44.20;100643.84;5065866;28;20056;-56
2023/08/07 07:48:38;;;;;;;1.80;0.88;;;;;;;26.75;44.35;100648.25;5068725;28;20063;-59
2023/08/07 07:51:05;;;;;;;1.60;0.70;;;;;;;26.74;43.88;100657.41;5067558;28;20043;-59
2023/08/07 07:53:33;;;;;;;2.05;0.65;;;;;;;26.74;43.97;100651.13;5066020;28;20437;-59
2023/08/07 07:56:00;;;;;;;2.08;0.85;;;;;;;26.74;43.77;100652.00;5065706;28;20511;-59
2023/08/07 07:58:27;;;;;;;1.48;0.60;;;;;;;26.75;43.51;100652.84;5068431;28;20052;-56
2023/08/07 08:00:55;;;;;;;1.73;0.70;;;;;;;26.74;43.40;100653.84;5067955;28;20076;-57
2023/08/07 08:03:23;;;;;;;0.80;0.32;;;;;;;26.74;43.33;100652.00;5066285;28;20055;-57
2023/08/07 08:05:52;;;;;;;1.42;0.60;;;;;;;26.74;43.09;100640.25;5065798;28;20055;-56
2023/08/07 08:08:19;;;;;;;1.63;0.68;;;;;;;26.74;42.90;100660.13;5068186;28;20041;-59
2023/08/07 08:10:47;;;;;;;0.88;0.40;;;;;;;26.73;43.22;100644.84;5066987;28;20055;-59
2023/08/07 08:13:15;;;;;;;1.45;0.65;;;;;;;26.74;42.92;100651.13;5066538;28;20052;-59
2023/08/07 08:15:44;;;;;;;1.23;0.50;;;;;;;26.74;43.08;100652.00;5066343;28;20048;-59
2023/08/07 08:18:12;;;;;;;1.65;0.47;;;;;;;26.74;42.96;100649.28;5068327;28;20071;-57
2023/08/07 08:20:39;;;;;;;1.02;0.40;;;;;;;26.74;42.87;100648.41;5066536;28;20107;-56
2023/08/07 08:23:06;;;;;;;1.85;0.70;;;;;;;26.74;42.76;100648.41;5065972;28;20051;-57
2023/08/07 08:25:34;;;;;;;1.05;0.40;;;;;;;26.74;42.98;100652.00;5065799;28;20048;-57
2023/08/07 08:28:01;;;;;;;1.02;0.45;;;;;;;26.74;42.77;100651.13;5067834;28;20052;-56
2023/08/07 08:30:29;;;;;;;0.88;0.35;;;;;;;26.74;42.79;100653.84;5066694;28;20492;-56
2023/08/07 08:32:56;;;;;;;1.50;0.40;;;;;;;26.75;43.09;100663.69;5060761;28;20048;-56
2023/08/07 08:35:24;;;;;;;0.93;0.47;;;;;;;26.73;42.76;100663.84;5067530;28;20061;-56
2023/08/07 08:37:51;;;;;;;1.23;0.40;;;;;;;26.74;42.63;100672.84;5068028;28;20048;-59
2023/08/07 08:40:19;;;;;;;1.20;0.52;;;;;;;26.74;42.86;100671.00;5069737;28;20037;-59
2023/08/07 08:42:46;;;;;;;1.80;0.40;;;;;;;26.75;42.62;100678.13;5060415;28;20056;-59
2023/08/07 08:45:14;;;;;;;1.23;0.40;;;;;;;26.74;42.52;100668.28;5067764;28;20049;-59
2023/08/07 08:47:46;;;;;;;1.27;0.60;;;;;;;26.74;42.71;100672.84;5067746;28;20075;-59
2023/08/07 08:50:14;;;;;;;1.27;0.50;;;;;;;26.74;42.77;100675.56;5066152;28;20033;-59
2023/08/07 08:52:46;;;;;;;1.27;0.43;;;;;;;26.75;42.85;100678.13;5064877;28;20048;-59
2023/08/07 08:55:14;;;;;;;1.23;0.52;;;;;;;26.75;42.85;100677.28;5066971;28;20059;-59
2023/08/07 08:57:42;;;;;;;1.33;0.40;;;;;;;26.74;42.73;100675.56;5067582;28;20055;-59
2023/08/07 09:00:29;;;;;;;1.15;0.55;;;;;;;26.74;42.68;100668.28;5065945;28;20037;-59
2023/08/07 09:02:57;;;;;;;1.48;0.57;;;;;;;26.75;42.72;100666.41;5065562;28;20055;-59
2023/08/07 09:05:25;;;;;;;1.50;0.50;;;;;;;26.74;42.46;100678.28;5067672;28;20052;-59
2023/08/07 09:07:52;;;;;;;1.63;0.43;;;;;;;26.74;42.70;100676.44;5067397;28;20508;-56
2023/08/07 09:10:20;;;;;;;1.27;0.57;;;;;;;26.74;42.55;100678.28;5065280;28;20047;-56
2023/08/07 09:13:00;;;;;;;1.40;0.47;;;;;;;26.74;42.49;100681.88;5065478;28;20045;-56
2023/08/07 09:15:29;;;;;;;1.33;0.40;;;;;;;26.74;42.16;100681.00;5067376;28;20052;-56
2023/08/07 09:17:58;;;;;;;1.15;0.35;;;;;;;26.75;42.09;100685.41;5065781;28;20053;-57
2023/08/07 09:20:26;;;;;;;0.90;0.43;;;;;;;26.75;42.05;100696.28;5063731;28;20048;-56
2023/08/07 09:22:53;;;;;;;0.90;0.30;;;;;;;26.74;42.50;100700.00;5070635;28;20060;-56
2023/08/07 09:25:28;;;;;;;1.27;0.45;;;;;;;26.74;42.27;100694.56;5067267;28;20071;-56
2023/08/07 09:27:59;;;;;;;0.82;0.40;;;;;;;26.74;42.09;100694.56;5065371;28;20052;-59
2023/08/07 09:30:28;;;;;;;0.98;0.50;;;;;;;26.75;41.98;100690.84;5064803;28;20044;-59
2023/08/07 09:33:00;;;;;;;1.38;0.30;;;;;;;26.75;41.69;100701.72;5067354;28;20045;-59
2023/08/07 09:35:29;;;;;;;1.38;0.50;;;;;;;26.73;41.64;100695.59;5065730;28;20049;-59
2023/08/07 09:37:57;;;;;;;0.90;0.32;;;;;;;26.74;41.64;100700.00;5068319;28;20519;-57
2023/08/07 09:40:25;;;;;;;1.23;0.38;;;;;;;26.74;41.50;100706.31;5070027;28;20058;-57
2023/08/07 09:42:54;;;;;;;1.10;0.40;;;;;;;26.73;41.62;100695.59;5070882;28;20048;-57
2023/08/07 09:45:27;;;;;;;0.90;0.50;;;;;;;26.74;41.67;100698.16;5069504;28;20051;-59
2023/08/07 09:47:57;;;;;;;1.20;0.50;;;;;;;26.74;41.59;100694.56;5067217;28;20405;-57
2023/08/07 09:50:26;;;;;;;0.57;0.35;;;;;;;26.73;41.52;100693.72;5066154;28;20049;-57
2023/08/07 09:53:01;;;;;;;0.90;0.40;;;;;;;26.74;41.54;100689.13;5070565;28;20049;-56
2023/08/07 09:55:28;;;;;;;1.02;0.50;;;;;;;26.74;41.61;100694.56;5068911;28;20059;-56
2023/08/07 09:57:56;;;;;;;1.58;0.43;;;;;;;26.74;41.50;100690.00;5068121;28;20055;-56
2023/08/07 10:00:23;;;;;;;0.98;0.40;;;;;;;26.74;41.25;100689.13;5070573;28;20045;-59
2023/08/07 10:02:51;;;;;;;1.42;0.60;;;;;;;26.74;41.00;100681.00;5070019;28;20044;-59
2023/08/07 10:05:18;;;;;;;1.25;0.45;;;;;;;26.74;41.10;100691.84;5068620;28;20063;-59
2023/08/07 10:07:48;;;;;;;1.60;0.60;;;;;;;26.74;40.97;100689.13;5068074;28;20384;-56
2023/08/07 10:10:16;;;;;;;1.27;0.40;;;;;;;26.74;40.92;100678.28;5070638;28;20040;-57
2023/08/07 10:12:47;;;;;;;1.08;0.50;;;;;;;26.73;40.86;100688.31;5069444;28;20435;-57
2023/08/07 10:15:15;;;;;;;1.50;0.57;;;;;;;26.73;40.98;100690.19;5063476;28;20045;-56
2023/08/07 10:17:43;;;;;;;0.95;0.30;;;;;;;26.73;40.94;100692.88;5070291;28;20041;-57
2023/08/07 10:20:15;;;;;;;1.73;0.50;;;;;;;26.72;40.69;100692.06;5070725;28;20048;-56
2023/08/07 10:22:44;;;;;;;0.80;0.40;;;;;;;26.72;40.62;100689.34;5068519;28;20048;-57
2023/08/07 10:25:12;;;;;;;1.25;0.52;;;;;;;26.73;40.45;100687.47;5063146;28;20048;-56
2023/08/07 10:27:42;;;;;;;0.82;0.30;;;;;;;26.72;40.32;100693.94;5064775;28;20507;-56
2023/08/07 10:30:14;;;;;;;1.10;0.43;;;;;;;26.72;40.37;100688.50;5070044;28;20052;-56
2023/08/07 10:32:43;;;;;;;0.95;0.40;;;;;;;26.71;40.12;100674.06;5068522;28;20052;-56
2023/08/07 10:35:31;;;;;;;1.33;0.38;;;;;;;26.72;39.91;100674.91;5066302;28;20061;-56
2023/08/07 10:38:09;;;;;;;2.30;0.43;;;;;;;26.71;40.18;100676.78;5070068;28;20044;-57
2023/08/07 10:40:58;;;;;;;0.85;0.32;;;;;;;26.71;40.15;100686.81;5068165;28;20041;-57
2023/08/07 10:43:27;;;;;;;1.88;0.52;;;;;;;26.71;40.09;100679.50;5069472;28;20051;-56
2023/08/07 10:46:04;;;;;;;0.75;0.45;;;;;;;26.71;40.14;100679.50;5069961;28;20048;-56
2023/08/07 10:48:39;;;;;;;1.00;0.40;;;;;;;26.71;40.14;100679.50;5067193;28;20053;-59
2023/08/07 10:51:07;;;;;;;0.93;0.28;;;;;;;26.71;40.18;100686.81;5067658;28;20045;-59
2023/08/07 10:53:42;;;;;;;0.88;0.30;;;;;;;26.71;40.01;100690.38;5069537;28;20055;-59
2023/08/07 10:56:14;;;;;;;1.00;0.40;;;;;;;26.71;39.92;100689.53;5068138;28;20055;-59
2023/08/07 10:58:42;;;;;;;;;;;;;;;26.69;40.12;100684.25;5066367;28;20059;-56
2023/08/07 11:01:40;;;;;;;0.95;0.30;;;;;;;26.71;40.00;100684.09;5070226;28;19986;-56
2023/08/07 11:04:15;;;;;;;1.23;0.45;;;;;;;26.69;40.03;100691.56;5068105;28;20052;-56
2023/08/07 11:06:48;;;;;;;1.75;0.60;;;;;;;26.69;40.12;100670.69;5066131;28;20052;-58
2023/08/07 11:09:15;;;;;;;1.02;0.43;;;;;;;26.70;40.16;100682.38;5070477;28;20044;-57
2023/08/07 11:11:48;;;;;;;1.08;0.45;;;;;;;26.70;40.18;100685.09;5068143;28;20045;-56
2023/08/07 11:14:16;;;;;;;0.65;0.25;;;;;;;26.69;40.03;100675.28;5062798;28;20049;-56
2023/08/07 11:16:45;;;;;;;1.25;0.43;;;;;;;26.70;39.84;100669.69;5069093;28;20049;-57
2023/08/07 11:19:14;;;;;;;0.40;0.20;;;;;;;26.70;39.83;100682.38;5069299;28;20044;-56
2023/08/07 11:21:42;;;;;;;0.98;0.40;;;;;;;26.69;39.99;100675.28;5067541;28;20048;-57
2023/08/07 11:24:14;;;;;;;0.63;0.30;;;;;;;26.70;39.75;100672.41;5066478;28;20068;-57
2023/08/07 11:26:45;;;;;;;0.57;0.30;;;;;;;26.70;39.61;100671.53;5069009;28;20057;-56
2023/08/07 11:29:18;;;;;;;0.70;0.32;;;;;;;26.70;39.62;100671.53;5068867;28;20051;-56
2023/08/07 11:31:46;;;;;;;1.20;0.40;;;;;;;26.69;39.59;100667.13;5067241;28;20067;-56